sensor_id;sensor_type;location;lat;lon;timestamp;P1;durP1;ratioP1;P2;durP2;ratioP2
44658;SDS011;30378;50.186;8.644;2022-10-17T00:03:23;6.68;;;3.50;;
44658;SDS011;30378;50.186;8.644;2022-10-17T00:05:50;10.27;;;4.30;;
44658;SDS011;30378;50.186;8.644;2022-10-17T00:08:17;13.27;;;4.53;;
44658;SDS011;30378;50.186;8.644;2022-10-17T00:10:45;7.53;;;3.70;;
44658;SDS011;30378;50.186;8.644;2022-10-17T00:13:25;7.90;;;3.40;;
44658;SDS011;30378;50.186;8.644;2022-10-17T00:18:19;10.15;;;4.80;;
44658;SDS011;30378;50.186;8.644;2022-10-17T00:20:47;6.45;;;3.17;;
44658;SDS011;30378;50.186;8.644;2022-10-17T00:23:14;8.32;;;4.18;;
44658;SDS011;30378;50.186;8.644;2022-10-17T00:25:41;12.15;;;4.00;;
44658;SDS011;30378;50.186;8.644;2022-10-17T00:28:08;8.85;;;5.00;;
44658;SDS011;30378;50.186;8.644;2022-10-17T00:30:36;8.43;;;3.65;;
44658;SDS011;30378;50.186;8.644;2022-10-17T00:33:04;7.20;;;3.60;;
44658;SDS011;30378;50.186;8.644;2022-10-17T00:35:31;8.27;;;4.10;;
44658;SDS011;30378;50.186;8.644;2022-10-17T00:37:59;10.32;;;4.55;;
44658;SDS011;30378;50.186;8.644;2022-10-17T00:40:26;10.13;;;4.30;;
44658;SDS011;30378;50.186;8.644;2022-10-17T00:48:21;7.53;;;3.53;;
44658;SDS011;30378;50.186;8.644;2022-10-17T00:50:45;7.63;;;3.83;;
44658;SDS011;30378;50.186;8.644;2022-10-17T00:53:14;7.03;;;4.43;;
44658;SDS011;30378;50.186;8.644;2022-10-17T00:55:47;6.88;;;3.70;;
44658;SDS011;30378;50.186;8.644;2022-10-17T00:58:16;7.00;;;3.40;;
44658;SDS011;30378;50.186;8.644;2022-10-17T01:00:45;7.95;;;4.47;;
44658;SDS011;30378;50.186;8.644;2022-10-17T01:03:14;6.82;;;3.85;;
44658;SDS011;30378;50.186;8.644;2022-10-17T01:05:41;8.02;;;4.10;;
44658;SDS011;30378;50.186;8.644;2022-10-17T01:08:09;12.55;;;3.38;;
44658;SDS011;30378;50.186;8.644;2022-10-17T01:10:44;5.63;;;3.58;;
44658;SDS011;30378;50.186;8.644;2022-10-17T01:13:25;8.43;;;4.40;;
44658;SDS011;30378;50.186;8.644;2022-10-17T01:26:51;10.50;;;4.57;;
44658;SDS011;30378;50.186;8.644;2022-10-17T01:30:02;13.32;;;5.20;;
44658;SDS011;30378;50.186;8.644;2022-10-17T01:32:58;9.55;;;5.05;;
44658;SDS011;30378;50.186;8.644;2022-10-17T01:38:43;10.85;;;4.40;;
44658;SDS011;30378;50.186;8.644;2022-10-17T01:41:48;13.23;;;4.68;;
44658;SDS011;30378;50.186;8.644;2022-10-17T01:47:10;15.18;;;6.82;;
44658;SDS011;30378;50.186;8.644;2022-10-17T01:49:41;46.00;;;7.07;;
44658;SDS011;30378;50.186;8.644;2022-10-17T01:52:13;18.50;;;5.90;;
44658;SDS011;30378;50.186;8.644;2022-10-17T01:57:25;14.73;;;5.47;;
44658;SDS011;30378;50.186;8.644;2022-10-17T02:00:00;9.82;;;5.28;;
44658;SDS011;30378;50.186;8.644;2022-10-17T02:02:39;13.45;;;5.68;;
44658;SDS011;30378;50.186;8.644;2022-10-17T02:05:07;14.75;;;5.57;;
44658;SDS011;30378;50.186;8.644;2022-10-17T02:07:35;16.10;;;5.07;;
44658;SDS011;30378;50.186;8.644;2022-10-17T02:10:03;14.40;;;5.70;;
44658;SDS011;30378;50.186;8.644;2022-10-17T02:12:53;11.07;;;5.40;;
44658;SDS011;30378;50.186;8.644;2022-10-17T02:18:23;8.48;;;4.82;;
44658;SDS011;30378;50.186;8.644;2022-10-17T02:29:57;8.75;;;4.30;;
44658;SDS011;30378;50.186;8.644;2022-10-17T02:32:43;7.13;;;4.35;;
44658;SDS011;30378;50.186;8.644;2022-10-17T02:35:39;7.47;;;3.50;;
44658;SDS011;30378;50.186;8.644;2022-10-17T02:38:13;10.50;;;3.72;;
44658;SDS011;30378;50.186;8.644;2022-10-17T02:40:41;10.73;;;4.35;;
44658;SDS011;30378;50.186;8.644;2022-10-17T02:43:11;9.57;;;4.68;;
44658;SDS011;30378;50.186;8.644;2022-10-17T02:45:39;12.48;;;4.57;;
44658;SDS011;30378;50.186;8.644;2022-10-17T02:48:11;8.10;;;4.72;;
44658;SDS011;30378;50.186;8.644;2022-10-17T02:50:48;6.82;;;5.05;;
44658;SDS011;30378;50.186;8.644;2022-10-17T02:54:02;8.80;;;3.42;;
44658;SDS011;30378;50.186;8.644;2022-10-17T02:56:50;6.75;;;3.50;;
44658;SDS011;30378;50.186;8.644;2022-10-17T02:59:19;6.82;;;3.10;;
44658;SDS011;30378;50.186;8.644;2022-10-17T03:01:49;32.08;;;4.38;;
44658;SDS011;30378;50.186;8.644;2022-10-17T03:04:17;9.07;;;4.13;;
44658;SDS011;30378;50.186;8.644;2022-10-17T03:06:45;10.85;;;5.13;;
44658;SDS011;30378;50.186;8.644;2022-10-17T03:09:14;16.02;;;6.13;;
44658;SDS011;30378;50.186;8.644;2022-10-17T03:11:41;12.38;;;5.45;;
44658;SDS011;30378;50.186;8.644;2022-10-17T03:14:08;30.92;;;6.63;;
44658;SDS011;30378;50.186;8.644;2022-10-17T03:16:35;9.55;;;5.28;;
44658;SDS011;30378;50.186;8.644;2022-10-17T03:19:03;7.10;;;3.25;;
44658;SDS011;30378;50.186;8.644;2022-10-17T03:21:31;9.90;;;3.95;;
44658;SDS011;30378;50.186;8.644;2022-10-17T03:23:58;9.10;;;4.10;;
44658;SDS011;30378;50.186;8.644;2022-10-17T03:26:26;7.07;;;4.50;;
44658;SDS011;30378;50.186;8.644;2022-10-17T03:28:56;7.68;;;3.97;;
44658;SDS011;30378;50.186;8.644;2022-10-17T03:31:27;5.15;;;3.25;;
44658;SDS011;30378;50.186;8.644;2022-10-17T03:33:55;6.38;;;3.92;;
44658;SDS011;30378;50.186;8.644;2022-10-17T03:36:22;5.57;;;3.45;;
44658;SDS011;30378;50.186;8.644;2022-10-17T03:38:52;9.13;;;4.32;;
44658;SDS011;30378;50.186;8.644;2022-10-17T03:41:20;7.30;;;4.13;;
44658;SDS011;30378;50.186;8.644;2022-10-17T03:46:14;10.05;;;3.85;;
44658;SDS011;30378;50.186;8.644;2022-10-17T03:48:46;9.82;;;3.78;;
44658;SDS011;30378;50.186;8.644;2022-10-17T03:51:14;10.25;;;4.13;;
44658;SDS011;30378;50.186;8.644;2022-10-17T03:53:48;10.60;;;4.93;;
44658;SDS011;30378;50.186;8.644;2022-10-17T03:56:17;9.88;;;4.95;;
44658;SDS011;30378;50.186;8.644;2022-10-17T03:58:53;10.20;;;4.25;;
44658;SDS011;30378;50.186;8.644;2022-10-17T04:01:21;9.48;;;4.63;;
44658;SDS011;30378;50.186;8.644;2022-10-17T04:03:49;9.13;;;4.75;;
44658;SDS011;30378;50.186;8.644;2022-10-17T04:06:20;8.70;;;4.15;;
44658;SDS011;30378;50.186;8.644;2022-10-17T04:08:47;7.32;;;4.05;;
44658;SDS011;30378;50.186;8.644;2022-10-17T04:11:25;8.00;;;4.00;;
44658;SDS011;30378;50.186;8.644;2022-10-17T04:13:57;10.43;;;4.88;;
44658;SDS011;30378;50.186;8.644;2022-10-17T04:16:26;6.97;;;4.57;;
44658;SDS011;30378;50.186;8.644;2022-10-17T04:18:58;7.20;;;4.38;;
44658;SDS011;30378;50.186;8.644;2022-10-17T04:21:29;8.07;;;4.32;;
44658;SDS011;30378;50.186;8.644;2022-10-17T04:24:01;9.55;;;4.85;;
44658;SDS011;30378;50.186;8.644;2022-10-17T04:26:42;9.85;;;5.55;;
44658;SDS011;30378;50.186;8.644;2022-10-17T04:29:10;9.57;;;4.55;;
44658;SDS011;30378;50.186;8.644;2022-10-17T04:31:39;10.25;;;4.63;;
44658;SDS011;30378;50.186;8.644;2022-10-17T04:34:16;9.52;;;4.65;;
44658;SDS011;30378;50.186;8.644;2022-10-17T04:36:43;10.93;;;5.65;;
44658;SDS011;30378;50.186;8.644;2022-10-17T04:39:10;9.10;;;4.95;;
44658;SDS011;30378;50.186;8.644;2022-10-17T04:41:43;10.90;;;5.35;;
44658;SDS011;30378;50.186;8.644;2022-10-17T04:44:10;9.85;;;5.35;;
44658;SDS011;30378;50.186;8.644;2022-10-17T04:46:42;13.25;;;4.60;;
44658;SDS011;30378;50.186;8.644;2022-10-17T04:49:09;10.52;;;5.50;;
44658;SDS011;30378;50.186;8.644;2022-10-17T04:51:38;12.18;;;5.82;;
44658;SDS011;30378;50.186;8.644;2022-10-17T04:54:15;11.88;;;5.10;;
44658;SDS011;30378;50.186;8.644;2022-10-17T04:56:46;12.00;;;5.15;;
44658;SDS011;30378;50.186;8.644;2022-10-17T04:59:14;11.63;;;4.57;;
44658;SDS011;30378;50.186;8.644;2022-10-17T05:01:43;10.93;;;5.90;;
44658;SDS011;30378;50.186;8.644;2022-10-17T05:06:37;9.85;;;4.85;;
44658;SDS011;30378;50.186;8.644;2022-10-17T05:09:36;9.15;;;4.88;;
44658;SDS011;30378;50.186;8.644;2022-10-17T05:12:04;10.07;;;4.93;;
44658;SDS011;30378;50.186;8.644;2022-10-17T05:14:32;10.82;;;5.28;;
44658;SDS011;30378;50.186;8.644;2022-10-17T05:19:27;10.45;;;5.15;;
44658;SDS011;30378;50.186;8.644;2022-10-17T05:21:54;11.88;;;6.80;;
44658;SDS011;30378;50.186;8.644;2022-10-17T05:24:21;10.52;;;5.72;;
44658;SDS011;30378;50.186;8.644;2022-10-17T05:26:50;15.40;;;6.18;;
44658;SDS011;30378;50.186;8.644;2022-10-17T05:29:18;10.38;;;5.97;;
44658;SDS011;30378;50.186;8.644;2022-10-17T05:31:50;10.32;;;5.43;;
44658;SDS011;30378;50.186;8.644;2022-10-17T05:34:18;9.38;;;4.85;;
44658;SDS011;30378;50.186;8.644;2022-10-17T05:36:46;11.00;;;5.40;;
44658;SDS011;30378;50.186;8.644;2022-10-17T05:39:16;11.73;;;5.35;;
44658;SDS011;30378;50.186;8.644;2022-10-17T05:41:47;7.97;;;4.82;;
44658;SDS011;30378;50.186;8.644;2022-10-17T05:44:14;7.70;;;4.05;;
44658;SDS011;30378;50.186;8.644;2022-10-17T05:46:47;8.73;;;4.13;;
44658;SDS011;30378;50.186;8.644;2022-10-17T05:49:15;8.65;;;4.20;;
44658;SDS011;30378;50.186;8.644;2022-10-17T05:51:51;9.68;;;4.32;;
44658;SDS011;30378;50.186;8.644;2022-10-17T05:54:18;6.85;;;3.42;;
44658;SDS011;30378;50.186;8.644;2022-10-17T05:56:45;10.50;;;4.00;;
44658;SDS011;30378;50.186;8.644;2022-10-17T05:59:20;9.15;;;4.15;;
44658;SDS011;30378;50.186;8.644;2022-10-17T06:01:52;7.13;;;4.38;;
44658;SDS011;30378;50.186;8.644;2022-10-17T06:04:19;7.78;;;4.35;;
44658;SDS011;30378;50.186;8.644;2022-10-17T06:09:13;11.30;;;4.10;;
44658;SDS011;30378;50.186;8.644;2022-10-17T06:11:43;8.95;;;4.68;;
44658;SDS011;30378;50.186;8.644;2022-10-17T06:14:11;6.97;;;3.95;;
44658;SDS011;30378;50.186;8.644;2022-10-17T06:16:39;6.05;;;3.33;;
44658;SDS011;30378;50.186;8.644;2022-10-17T06:21:33;10.15;;;5.70;;
44658;SDS011;30378;50.186;8.644;2022-10-17T06:24:23;11.73;;;6.05;;
44658;SDS011;30378;50.186;8.644;2022-10-17T06:26:51;9.48;;;4.53;;
44658;SDS011;30378;50.186;8.644;2022-10-17T06:29:20;5.88;;;3.80;;
44658;SDS011;30378;50.186;8.644;2022-10-17T06:31:49;6.93;;;3.40;;
44658;SDS011;30378;50.186;8.644;2022-10-17T06:34:18;5.22;;;2.80;;
44658;SDS011;30378;50.186;8.644;2022-10-17T06:36:45;8.93;;;3.20;;
44658;SDS011;30378;50.186;8.644;2022-10-17T06:39:13;3.35;;;2.05;;
44658;SDS011;30378;50.186;8.644;2022-10-17T06:41:48;3.85;;;2.50;;
44658;SDS011;30378;50.186;8.644;2022-10-17T06:44:18;4.47;;;2.38;;
44658;SDS011;30378;50.186;8.644;2022-10-17T06:46:47;6.13;;;3.05;;
44658;SDS011;30378;50.186;8.644;2022-10-17T06:49:16;5.07;;;2.40;;
44658;SDS011;30378;50.186;8.644;2022-10-17T06:51:53;6.68;;;2.15;;
44658;SDS011;30378;50.186;8.644;2022-10-17T06:54:31;4.40;;;2.15;;
44658;SDS011;30378;50.186;8.644;2022-10-17T06:57:21;7.88;;;2.55;;
44658;SDS011;30378;50.186;8.644;2022-10-17T07:00:18;4.75;;;2.60;;
44658;SDS011;30378;50.186;8.644;2022-10-17T07:02:50;5.63;;;3.13;;
44658;SDS011;30378;50.186;8.644;2022-10-17T07:05:17;5.55;;;2.20;;
44658;SDS011;30378;50.186;8.644;2022-10-17T07:07:45;4.95;;;2.75;;
44658;SDS011;30378;50.186;8.644;2022-10-17T07:10:12;4.63;;;3.22;;
44658;SDS011;30378;50.186;8.644;2022-10-17T07:12:40;5.15;;;3.20;;
44658;SDS011;30378;50.186;8.644;2022-10-17T07:15:07;6.53;;;2.50;;
44658;SDS011;30378;50.186;8.644;2022-10-17T07:17:34;5.05;;;2.60;;
44658;SDS011;30378;50.186;8.644;2022-10-17T07:20:01;4.97;;;2.97;;
44658;SDS011;30378;50.186;8.644;2022-10-17T07:22:31;6.57;;;3.17;;
44658;SDS011;30378;50.186;8.644;2022-10-17T07:24:58;4.45;;;3.08;;
44658;SDS011;30378;50.186;8.644;2022-10-17T07:27:29;6.03;;;2.78;;
44658;SDS011;30378;50.186;8.644;2022-10-17T07:29:56;6.00;;;3.15;;
44658;SDS011;30378;50.186;8.644;2022-10-17T07:32:52;5.70;;;2.75;;
44658;SDS011;30378;50.186;8.644;2022-10-17T07:35:20;6.28;;;2.95;;
44658;SDS011;30378;50.186;8.644;2022-10-17T07:37:47;6.22;;;3.10;;
44658;SDS011;30378;50.186;8.644;2022-10-17T07:40:17;7.53;;;3.10;;
44658;SDS011;30378;50.186;8.644;2022-10-17T07:42:44;5.15;;;2.78;;
44658;SDS011;30378;50.186;8.644;2022-10-17T07:45:11;6.53;;;2.58;;
44658;SDS011;30378;50.186;8.644;2022-10-17T07:47:40;6.80;;;2.65;;
44658;SDS011;30378;50.186;8.644;2022-10-17T07:50:09;6.47;;;3.45;;
44658;SDS011;30378;50.186;8.644;2022-10-17T07:52:35;4.45;;;2.90;;
44658;SDS011;30378;50.186;8.644;2022-10-17T07:55:03;5.82;;;2.80;;
44658;SDS011;30378;50.186;8.644;2022-10-17T07:57:30;8.43;;;3.28;;
44658;SDS011;30378;50.186;8.644;2022-10-17T07:59:57;6.22;;;3.50;;
44658;SDS011;30378;50.186;8.644;2022-10-17T08:02:25;6.28;;;3.42;;
44658;SDS011;30378;50.186;8.644;2022-10-17T08:04:53;6.20;;;3.45;;
44658;SDS011;30378;50.186;8.644;2022-10-17T08:07:20;8.27;;;3.67;;
44658;SDS011;30378;50.186;8.644;2022-10-17T08:09:49;6.38;;;3.15;;
44658;SDS011;30378;50.186;8.644;2022-10-17T08:12:16;9.60;;;3.35;;
44658;SDS011;30378;50.186;8.644;2022-10-17T08:14:43;5.63;;;4.00;;
44658;SDS011;30378;50.186;8.644;2022-10-17T08:17:10;5.00;;;3.80;;
44658;SDS011;30378;50.186;8.644;2022-10-17T08:19:38;7.80;;;3.40;;
44658;SDS011;30378;50.186;8.644;2022-10-17T08:22:06;6.22;;;4.38;;
44658;SDS011;30378;50.186;8.644;2022-10-17T08:24:33;6.07;;;3.13;;
44658;SDS011;30378;50.186;8.644;2022-10-17T08:27:00;6.43;;;3.70;;
44658;SDS011;30378;50.186;8.644;2022-10-17T08:29:27;4.35;;;2.92;;
44658;SDS011;30378;50.186;8.644;2022-10-17T08:31:54;6.10;;;3.70;;
44658;SDS011;30378;50.186;8.644;2022-10-17T08:34:23;6.90;;;3.90;;
44658;SDS011;30378;50.186;8.644;2022-10-17T08:36:51;5.63;;;3.50;;
44658;SDS011;30378;50.186;8.644;2022-10-17T08:39:18;5.35;;;3.35;;
44658;SDS011;30378;50.186;8.644;2022-10-17T08:44:19;7.45;;;3.72;;
44658;SDS011;30378;50.186;8.644;2022-10-17T08:47:04;15.35;;;4.70;;
44658;SDS011;30378;50.186;8.644;2022-10-17T08:49:42;11.27;;;4.75;;
44658;SDS011;30378;50.186;8.644;2022-10-17T08:52:17;7.90;;;4.28;;
44658;SDS011;30378;50.186;8.644;2022-10-17T08:54:44;7.05;;;4.32;;
44658;SDS011;30378;50.186;8.644;2022-10-17T08:57:14;7.82;;;3.83;;
44658;SDS011;30378;50.186;8.644;2022-10-17T08:59:43;7.82;;;3.20;;
44658;SDS011;30378;50.186;8.644;2022-10-17T09:18:38;9.15;;;3.88;;
44658;SDS011;30378;50.186;8.644;2022-10-17T09:21:22;6.55;;;3.30;;
44658;SDS011;30378;50.186;8.644;2022-10-17T09:23:59;8.75;;;4.03;;
44658;SDS011;30378;50.186;8.644;2022-10-17T09:26:34;7.20;;;3.40;;
44658;SDS011;30378;50.186;8.644;2022-10-17T09:29:01;7.78;;;3.78;;
44658;SDS011;30378;50.186;8.644;2022-10-17T09:31:33;7.68;;;3.90;;
44658;SDS011;30378;50.186;8.644;2022-10-17T09:34:06;10.32;;;3.55;;
44658;SDS011;30378;50.186;8.644;2022-10-17T09:36:37;7.13;;;4.10;;
44658;SDS011;30378;50.186;8.644;2022-10-17T09:39:12;11.27;;;4.22;;
44658;SDS011;30378;50.186;8.644;2022-10-17T09:41:43;9.55;;;3.15;;
44658;SDS011;30378;50.186;8.644;2022-10-17T09:46:57;8.18;;;2.72;;
44658;SDS011;30378;50.186;8.644;2022-10-17T09:49:43;5.30;;;2.88;;
44658;SDS011;30378;50.186;8.644;2022-10-17T09:52:13;5.35;;;2.63;;
44658;SDS011;30378;50.186;8.644;2022-10-17T09:57:52;7.68;;;3.63;;
44658;SDS011;30378;50.186;8.644;2022-10-17T10:00:26;6.15;;;2.65;;
44658;SDS011;30378;50.186;8.644;2022-10-17T10:05:57;6.45;;;2.80;;
44658;SDS011;30378;50.186;8.644;2022-10-17T10:08:33;4.75;;;2.85;;
44658;SDS011;30378;50.186;8.644;2022-10-17T10:13:31;11.50;;;3.83;;
44658;SDS011;30378;50.186;8.644;2022-10-17T10:16:21;7.68;;;2.63;;
44658;SDS011;30378;50.186;8.644;2022-10-17T10:18:55;7.22;;;3.03;;
44658;SDS011;30378;50.186;8.644;2022-10-17T10:21:24;6.72;;;3.67;;
44658;SDS011;30378;50.186;8.644;2022-10-17T10:26:41;6.82;;;2.88;;
44658;SDS011;30378;50.186;8.644;2022-10-17T10:31:52;5.47;;;3.15;;
44658;SDS011;30378;50.186;8.644;2022-10-17T10:34:20;8.35;;;2.63;;
44658;SDS011;30378;50.186;8.644;2022-10-17T10:36:55;7.00;;;3.22;;
44658;SDS011;30378;50.186;8.644;2022-10-17T10:39:30;7.40;;;2.80;;
44658;SDS011;30378;50.186;8.644;2022-10-17T10:42:01;6.32;;;2.50;;
44658;SDS011;30378;50.186;8.644;2022-10-17T10:44:29;6.35;;;2.97;;
44658;SDS011;30378;50.186;8.644;2022-10-17T10:47:08;8.35;;;3.40;;
44658;SDS011;30378;50.186;8.644;2022-10-17T10:49:49;7.70;;;2.90;;
44658;SDS011;30378;50.186;8.644;2022-10-17T10:52:24;4.88;;;2.42;;
44658;SDS011;30378;50.186;8.644;2022-10-17T10:54:59;6.28;;;2.83;;
44658;SDS011;30378;50.186;8.644;2022-10-17T10:57:40;5.72;;;2.35;;
44658;SDS011;30378;50.186;8.644;2022-10-17T11:05:42;5.15;;;2.85;;
44658;SDS011;30378;50.186;8.644;2022-10-17T11:11:01;4.32;;;2.42;;
44658;SDS011;30378;50.186;8.644;2022-10-17T11:13:36;6.10;;;2.45;;
44658;SDS011;30378;50.186;8.644;2022-10-17T11:16:27;6.20;;;2.45;;
44658;SDS011;30378;50.186;8.644;2022-10-17T11:24:46;7.45;;;2.97;;
44658;SDS011;30378;50.186;8.644;2022-10-17T11:27:23;7.75;;;2.63;;
44658;SDS011;30378;50.186;8.644;2022-10-17T11:29:51;8.35;;;2.70;;
44658;SDS011;30378;50.186;8.644;2022-10-17T11:32:19;6.28;;;1.95;;
44658;SDS011;30378;50.186;8.644;2022-10-17T11:35:01;10.90;;;3.83;;
44658;SDS011;30378;50.186;8.644;2022-10-17T11:37:35;8.35;;;2.50;;
44658;SDS011;30378;50.186;8.644;2022-10-17T11:40:17;5.90;;;3.10;;
44658;SDS011;30378;50.186;8.644;2022-10-17T11:42:52;9.07;;;2.13;;
44658;SDS011;30378;50.186;8.644;2022-10-17T11:45:52;8.15;;;3.03;;
44658;SDS011;30378;50.186;8.644;2022-10-17T11:48:27;3.90;;;2.47;;
44658;SDS011;30378;50.186;8.644;2022-10-17T11:51:09;4.90;;;2.38;;
44658;SDS011;30378;50.186;8.644;2022-10-17T11:59:27;10.30;;;2.30;;
44658;SDS011;30378;50.186;8.644;2022-10-17T12:02:07;4.78;;;2.60;;
44658;SDS011;30378;50.186;8.644;2022-10-17T12:04:45;4.47;;;2.28;;
44658;SDS011;30378;50.186;8.644;2022-10-17T12:08:03;7.05;;;3.33;;
44658;SDS011;30378;50.186;8.644;2022-10-17T12:15:55;4.90;;;2.35;;
44658;SDS011;30378;50.186;8.644;2022-10-17T12:18:43;7.82;;;2.38;;
44658;SDS011;30378;50.186;8.644;2022-10-17T12:21:10;5.55;;;2.47;;
44658;SDS011;30378;50.186;8.644;2022-10-17T12:23:37;5.40;;;3.10;;
44658;SDS011;30378;50.186;8.644;2022-10-17T12:26:07;4.47;;;2.30;;
44658;SDS011;30378;50.186;8.644;2022-10-17T12:33:48;7.20;;;2.97;;
44658;SDS011;30378;50.186;8.644;2022-10-17T12:38:44;6.00;;;2.38;;
44658;SDS011;30378;50.186;8.644;2022-10-17T12:54:37;9.35;;;2.33;;
44658;SDS011;30378;50.186;8.644;2022-10-17T12:57:16;6.45;;;2.00;;
44658;SDS011;30378;50.186;8.644;2022-10-17T12:59:55;6.05;;;1.75;;
44658;SDS011;30378;50.186;8.644;2022-10-17T13:02:24;4.47;;;2.28;;
44658;SDS011;30378;50.186;8.644;2022-10-17T13:04:58;6.60;;;2.13;;
44658;SDS011;30378;50.186;8.644;2022-10-17T13:10:02;5.18;;;2.35;;
44658;SDS011;30378;50.186;8.644;2022-10-17T13:12:31;5.63;;;1.90;;
44658;SDS011;30378;50.186;8.644;2022-10-17T13:15:03;3.35;;;2.05;;
44658;SDS011;30378;50.186;8.644;2022-10-17T13:17:33;10.65;;;2.60;;
44658;SDS011;30378;50.186;8.644;2022-10-17T13:20:00;4.35;;;1.77;;
44658;SDS011;30378;50.186;8.644;2022-10-17T13:22:29;8.25;;;2.15;;
44658;SDS011;30378;50.186;8.644;2022-10-17T13:25:11;4.30;;;1.70;;
44658;SDS011;30378;50.186;8.644;2022-10-17T13:27:41;5.13;;;2.08;;
44658;SDS011;30378;50.186;8.644;2022-10-17T13:33:15;5.45;;;3.08;;
44658;SDS011;30378;50.186;8.644;2022-10-17T13:35:53;5.10;;;2.58;;
44658;SDS011;30378;50.186;8.644;2022-10-17T13:38:26;3.88;;;1.50;;
44658;SDS011;30378;50.186;8.644;2022-10-17T13:40:55;5.93;;;2.40;;
44658;SDS011;30378;50.186;8.644;2022-10-17T13:43:27;3.58;;;1.80;;
44658;SDS011;30378;50.186;8.644;2022-10-17T13:45:58;5.38;;;1.80;;
44658;SDS011;30378;50.186;8.644;2022-10-17T13:48:39;6.10;;;1.70;;
44658;SDS011;30378;50.186;8.644;2022-10-17T13:51:06;4.32;;;2.40;;
44658;SDS011;30378;50.186;8.644;2022-10-17T13:53:36;4.28;;;2.38;;
44658;SDS011;30378;50.186;8.644;2022-10-17T13:56:14;3.13;;;1.70;;
44658;SDS011;30378;50.186;8.644;2022-10-17T13:59:00;3.20;;;1.45;;
44658;SDS011;30378;50.186;8.644;2022-10-17T14:01:34;4.65;;;2.00;;
44658;SDS011;30378;50.186;8.644;2022-10-17T14:04:03;6.45;;;1.85;;
44658;SDS011;30378;50.186;8.644;2022-10-17T14:06:39;5.13;;;2.38;;
44658;SDS011;30378;50.186;8.644;2022-10-17T14:09:22;8.10;;;2.92;;
44658;SDS011;30378;50.186;8.644;2022-10-17T14:12:01;6.70;;;2.28;;
44658;SDS011;30378;50.186;8.644;2022-10-17T14:14:32;6.18;;;1.75;;
44658;SDS011;30378;50.186;8.644;2022-10-17T14:17:13;3.53;;;2.15;;
44658;SDS011;30378;50.186;8.644;2022-10-17T14:19:52;6.30;;;2.30;;
44658;SDS011;30378;50.186;8.644;2022-10-17T14:22:34;5.00;;;2.40;;
44658;SDS011;30378;50.186;8.644;2022-10-17T14:25:02;5.45;;;1.98;;
44658;SDS011;30378;50.186;8.644;2022-10-17T14:30:05;6.13;;;2.10;;
44658;SDS011;30378;50.186;8.644;2022-10-17T14:33:14;6.95;;;1.83;;
44658;SDS011;30378;50.186;8.644;2022-10-17T14:35:51;5.53;;;1.80;;
44658;SDS011;30378;50.186;8.644;2022-10-17T14:38:20;6.68;;;2.20;;
44658;SDS011;30378;50.186;8.644;2022-10-17T14:40:52;5.35;;;1.98;;
44658;SDS011;30378;50.186;8.644;2022-10-17T14:43:53;4.82;;;1.42;;
44658;SDS011;30378;50.186;8.644;2022-10-17T14:46:22;7.03;;;2.20;;
44658;SDS011;30378;50.186;8.644;2022-10-17T14:49:37;4.15;;;1.55;;
44658;SDS011;30378;50.186;8.644;2022-10-17T14:54:41;6.63;;;1.98;;
44658;SDS011;30378;50.186;8.644;2022-10-17T14:57:16;6.15;;;2.30;;
44658;SDS011;30378;50.186;8.644;2022-10-17T15:00:04;4.07;;;1.55;;
44658;SDS011;30378;50.186;8.644;2022-10-17T15:02:31;4.72;;;2.40;;
44658;SDS011;30378;50.186;8.644;2022-10-17T15:04:58;4.88;;;1.75;;
44658;SDS011;30378;50.186;8.644;2022-10-17T15:07:25;4.45;;;1.98;;
44658;SDS011;30378;50.186;8.644;2022-10-17T15:09:52;4.72;;;2.15;;
44658;SDS011;30378;50.186;8.644;2022-10-17T15:12:23;4.90;;;2.10;;
44658;SDS011;30378;50.186;8.644;2022-10-17T15:14:51;6.28;;;2.28;;
44658;SDS011;30378;50.186;8.644;2022-10-17T15:17:24;7.35;;;1.80;;
44658;SDS011;30378;50.186;8.644;2022-10-17T15:19:56;7.20;;;2.30;;
44658;SDS011;30378;50.186;8.644;2022-10-17T15:22:23;5.43;;;1.75;;
44658;SDS011;30378;50.186;8.644;2022-10-17T15:24:50;12.35;;;1.92;;
44658;SDS011;30378;50.186;8.644;2022-10-17T15:27:19;5.72;;;2.17;;
44658;SDS011;30378;50.186;8.644;2022-10-17T15:29:47;5.07;;;1.83;;
44658;SDS011;30378;50.186;8.644;2022-10-17T15:32:16;3.97;;;2.85;;
44658;SDS011;30378;50.186;8.644;2022-10-17T15:34:43;6.78;;;1.73;;
44658;SDS011;30378;50.186;8.644;2022-10-17T15:37:14;5.40;;;2.38;;
44658;SDS011;30378;50.186;8.644;2022-10-17T15:39:51;6.75;;;1.60;;
44658;SDS011;30378;50.186;8.644;2022-10-17T15:42:20;4.95;;;2.28;;
44658;SDS011;30378;50.186;8.644;2022-10-17T15:44:52;6.97;;;2.13;;
44658;SDS011;30378;50.186;8.644;2022-10-17T15:47:29;3.90;;;1.60;;
44658;SDS011;30378;50.186;8.644;2022-10-17T15:49:59;6.43;;;2.55;;
44658;SDS011;30378;50.186;8.644;2022-10-17T15:52:26;6.55;;;1.95;;
44658;SDS011;30378;50.186;8.644;2022-10-17T15:54:53;6.38;;;2.13;;
44658;SDS011;30378;50.186;8.644;2022-10-17T15:57:25;8.18;;;3.15;;
44658;SDS011;30378;50.186;8.644;2022-10-17T15:59:55;6.18;;;3.17;;
44658;SDS011;30378;50.186;8.644;2022-10-17T16:02:24;5.15;;;2.50;;
44658;SDS011;30378;50.186;8.644;2022-10-17T16:04:51;8.13;;;2.78;;
44658;SDS011;30378;50.186;8.644;2022-10-17T16:07:19;4.40;;;2.15;;
44658;SDS011;30378;50.186;8.644;2022-10-17T16:09:46;7.10;;;2.10;;
44658;SDS011;30378;50.186;8.644;2022-10-17T16:12:23;7.40;;;2.90;;
44658;SDS011;30378;50.186;8.644;2022-10-17T16:14:53;7.85;;;2.63;;
44658;SDS011;30378;50.186;8.644;2022-10-17T16:17:21;4.93;;;2.08;;
44658;SDS011;30378;50.186;8.644;2022-10-17T16:19:48;9.25;;;2.92;;
44658;SDS011;30378;50.186;8.644;2022-10-17T16:22:17;9.20;;;2.78;;
44658;SDS011;30378;50.186;8.644;2022-10-17T16:24:57;7.82;;;2.92;;
44658;SDS011;30378;50.186;8.644;2022-10-17T16:27:33;8.57;;;2.78;;
44658;SDS011;30378;50.186;8.644;2022-10-17T16:30:00;5.50;;;2.20;;
44658;SDS011;30378;50.186;8.644;2022-10-17T16:32:28;6.43;;;2.67;;
44658;SDS011;30378;50.186;8.644;2022-10-17T16:34:55;9.18;;;2.97;;
44658;SDS011;30378;50.186;8.644;2022-10-17T16:37:24;5.50;;;3.50;;
44658;SDS011;30378;50.186;8.644;2022-10-17T16:39:52;6.35;;;1.83;;
44658;SDS011;30378;50.186;8.644;2022-10-17T16:42:19;9.65;;;3.40;;
44658;SDS011;30378;50.186;8.644;2022-10-17T16:44:47;10.68;;;2.72;;
44658;SDS011;30378;50.186;8.644;2022-10-17T16:47:15;9.10;;;2.78;;
44658;SDS011;30378;50.186;8.644;2022-10-17T16:49:43;5.45;;;3.15;;
44658;SDS011;30378;50.186;8.644;2022-10-17T16:52:10;9.45;;;3.38;;
44658;SDS011;30378;50.186;8.644;2022-10-17T16:54:37;8.15;;;3.60;;
44658;SDS011;30378;50.186;8.644;2022-10-17T16:57:04;7.65;;;3.70;;
44658;SDS011;30378;50.186;8.644;2022-10-17T16:59:31;8.05;;;2.92;;
44658;SDS011;30378;50.186;8.644;2022-10-17T17:01:58;6.55;;;3.20;;
44658;SDS011;30378;50.186;8.644;2022-10-17T17:06:52;8.25;;;3.55;;
44658;SDS011;30378;50.186;8.644;2022-10-17T17:09:19;9.68;;;3.70;;
44658;SDS011;30378;50.186;8.644;2022-10-17T17:11:46;7.70;;;4.25;;
44658;SDS011;30378;50.186;8.644;2022-10-17T17:14:13;6.25;;;3.22;;
44658;SDS011;30378;50.186;8.644;2022-10-17T17:16:40;7.18;;;3.13;;
44658;SDS011;30378;50.186;8.644;2022-10-17T17:19:08;8.00;;;3.85;;
44658;SDS011;30378;50.186;8.644;2022-10-17T17:21:38;17.17;;;4.10;;
44658;SDS011;30378;50.186;8.644;2022-10-17T17:24:05;8.35;;;3.20;;
44658;SDS011;30378;50.186;8.644;2022-10-17T17:26:32;10.35;;;3.63;;
44658;SDS011;30378;50.186;8.644;2022-10-17T17:29:04;9.70;;;4.47;;
44658;SDS011;30378;50.186;8.644;2022-10-17T17:31:32;12.65;;;4.45;;
44658;SDS011;30378;50.186;8.644;2022-10-17T17:34:00;7.28;;;4.35;;
44658;SDS011;30378;50.186;8.644;2022-10-17T17:36:29;10.48;;;4.57;;
44658;SDS011;30378;50.186;8.644;2022-10-17T17:38:58;17.40;;;4.78;;
44658;SDS011;30378;50.186;8.644;2022-10-17T17:41:27;12.70;;;4.28;;
44658;SDS011;30378;50.186;8.644;2022-10-17T17:43:54;17.38;;;3.60;;